createdAt,value
2019-06-26T00:03:28.547Z,12.18
2019-06-26T00:13:32.927Z,12.70
2019-06-26T00:23:37.392Z,13.10
2019-06-26T00:33:41.731Z,16.73
2019-06-26T00:43:46.043Z,13.78
2019-06-26T00:53:51.472Z,16.48
2019-06-26T01:03:58.307Z,18.05
2019-06-26T01:14:02.606Z,16.30
2019-06-26T01:24:07.047Z,18.37
2019-06-26T01:34:11.366Z,17.92
2019-06-26T01:44:15.887Z,22.20
2019-06-26T01:54:20.295Z,18.50
2019-06-26T02:04:24.681Z,24.70
2019-06-26T02:14:31.554Z,18.65
2019-06-26T02:24:35.018Z,21.20
2019-06-26T02:34:39.724Z,20.50
2019-06-26T02:44:52.871Z,25.60
2019-06-26T02:54:50.171Z,23.85
2019-06-26T03:04:54.581Z,22.42
2019-06-26T03:15:08.461Z,19.02
2019-06-26T03:25:05.215Z,19.55
2019-06-26T03:35:10.096Z,20.40
2019-06-26T03:45:25.135Z,23.45
2019-06-26T03:55:21.000Z,25.15
2019-06-26T04:05:25.405Z,27.27
2019-06-26T04:15:41.521Z,27.62
2019-06-26T04:25:38.261Z,33.45
2019-06-26T04:35:44.351Z,31.62
2019-06-26T04:45:58.003Z,35.58
2019-06-26T04:55:54.731Z,37.98
2019-06-26T05:05:59.097Z,38.92
2019-06-26T05:16:14.319Z,42.27
2019-06-26T05:26:09.445Z,44.77
2019-06-26T05:36:13.759Z,47.90
2019-06-26T05:46:30.448Z,58.25
2019-06-26T05:56:24.124Z,53.80
2019-06-26T06:06:41.228Z,61.42
2019-06-26T06:16:47.034Z,64.75
2019-06-26T06:26:40.531Z,59.88
2019-06-26T06:36:44.850Z,66.60
2019-06-26T06:47:02.940Z,67.05
2019-06-26T06:56:55.211Z,71.77
2019-06-26T07:06:59.572Z,66.90
2019-06-26T07:17:19.474Z,55.78
2019-06-26T07:27:09.978Z,56.75
2019-06-26T07:37:14.302Z,55.85
2019-06-26T07:47:23.399Z,45.38
2019-06-26T07:57:24.972Z,43.13
2019-06-26T08:07:29.324Z,41.73
2019-06-26T08:17:33.767Z,42.25
2019-06-26T08:27:38.091Z,40.88
2019-06-26T08:37:42.582Z,41.00
2019-06-26T08:47:46.963Z,42.20
2019-06-26T08:57:54.781Z,39.60
2019-06-26T09:07:59.647Z,49.50
2019-06-26T09:18:04.055Z,48.80
2019-06-26T09:28:08.362Z,51.42
2019-06-26T09:38:16.270Z,52.08
2019-06-26T09:59:24.515Z,50.23
2019-06-26T10:09:28.809Z,46.83
2019-06-26T10:19:33.268Z,53.48
2019-06-26T10:29:37.729Z,53.00
2019-06-26T10:39:42.084Z,52.38
2019-06-26T10:49:46.515Z,59.40
2019-06-26T10:59:54.501Z,51.05
2019-06-26T11:09:56.820Z,55.03
2019-06-26T11:20:01.208Z,41.77
2019-06-26T11:30:07.171Z,41.88
2019-06-26T11:40:11.610Z,52.05
2019-06-26T11:50:16.349Z,38.63
2019-06-26T12:00:23.002Z,30.35
2019-06-26T12:10:27.511Z,34.43
2019-06-26T12:20:32.397Z,29.72
2019-06-26T12:30:37.137Z,28.23
2019-06-26T12:40:41.518Z,23.38
2019-06-26T12:50:45.945Z,19.80
2019-06-26T13:00:50.340Z,22.25
2019-06-26T13:10:54.765Z,18.17
2019-06-26T13:20:59.185Z,18.07
2019-06-26T13:31:03.613Z,10.43
2019-06-26T13:41:08.003Z,15.18
2019-06-26T13:51:12.384Z,9.80
2019-06-26T14:01:16.826Z,9.05
2019-06-26T14:11:21.145Z,8.70
2019-06-26T14:21:26.423Z,10.45
2019-06-26T14:31:30.891Z,7.72
2019-06-26T14:41:38.912Z,10.50
2019-06-26T14:51:47.177Z,9.80
2019-06-26T15:01:47.410Z,10.15
2019-06-26T15:11:51.835Z,12.98
2019-06-26T15:21:59.161Z,10.30
2019-06-26T15:32:06.216Z,11.68
2019-06-26T15:42:10.677Z,13.50
2019-06-26T15:52:15.692Z,9.80
2019-06-26T16:02:20.170Z,9.18
2019-06-26T16:12:24.560Z,10.03
2019-06-26T16:22:32.641Z,7.92
2019-06-26T16:32:34.948Z,11.30
2019-06-26T16:42:39.431Z,8.45
2019-06-26T16:52:49.080Z,7.45
2019-06-26T17:02:50.242Z,11.03
2019-06-26T17:12:54.665Z,10.95
2019-06-26T17:23:05.629Z,9.13
2019-06-26T17:33:05.027Z,9.55
2019-06-26T17:43:12.680Z,11.05
2019-06-26T17:53:21.560Z,10.32
2019-06-26T18:03:21.636Z,7.42
2019-06-26T18:13:25.998Z,7.78
2019-06-26T18:23:37.694Z,7.53
2019-06-26T18:33:36.419Z,4.78
2019-06-26T18:43:48.088Z,5.17
2019-06-26T18:53:53.897Z,5.37
2019-06-26T19:03:58.579Z,6.08
2019-06-26T19:14:02.990Z,5.78
2019-06-26T19:24:10.493Z,6.47
2019-06-26T19:34:13.637Z,4.65
2019-06-26T19:44:18.011Z,6.83
2019-06-26T19:54:27.113Z,6.62
2019-06-26T20:04:28.524Z,11.65
2019-06-26T20:14:32.996Z,6.45
2019-06-26T20:24:44.529Z,10.85
2019-06-26T20:34:46.584Z,12.93
2019-06-26T20:44:50.815Z,11.55
2019-06-26T20:55:01.109Z,7.95
2019-06-26T21:05:01.758Z,7.22
2019-06-26T21:15:06.543Z,6.60
2019-06-26T21:25:18.978Z,5.65
2019-06-26T21:35:17.128Z,6.87
2019-06-26T21:45:21.552Z,7.08
2019-06-26T21:55:34.090Z,7.05
2019-06-26T22:05:33.498Z,4.75
2019-06-26T22:15:37.791Z,8.25
2019-06-26T22:25:50.694Z,6.67
2019-06-26T22:35:48.245Z,8.83
2019-06-26T22:45:52.625Z,4.33
2019-06-26T22:56:07.046Z,5.28
2019-06-26T23:06:03.060Z,4.60
2019-06-26T23:16:07.397Z,5.47
2019-06-26T23:26:23.393Z,6.87
2019-06-26T23:36:18.094Z,5.20
2019-06-26T23:46:22.460Z,6.65
2019-06-26T23:56:39.531Z,4.80
